Time;durP1;ratioP1;P1;durP2;ratioP2;P2;SDS_P1;SDS_P2;PMS_P1;PMS_P2;Temp;Humidity;BMP_temperature;BMP_pressure;BME280_temperature;BME280_humidity;BME280_pressure;Samples;Min_cycle;Max_cycle;Signal;HPM_P1;HPM_P2
2023/04/18 00:00:31;;;;;;;;;;;;;;;3.63;60.93;102805.50;4996191;28;19913;-70
2023/04/18 00:02:57;;;;;;;;;;;;;;;3.61;62.64;102794.19;4997252;28;19949;-69
2023/04/18 00:05:22;;;;;;;;;;;;;;;3.59;63.22;102793.41;4998895;28;19922;-71
2023/04/18 00:07:48;;;;;;;;;;;;;;;3.57;61.51;102795.25;5001080;28;20269;-69
2023/04/18 00:10:13;;;;;;;;;;;;;;;3.57;60.68;102795.25;4982722;28;19949;-71
2023/04/18 00:12:40;;;;;;;;;;;;;;;3.55;60.37;102795.31;4997868;28;19914;-72
2023/04/18 00:15:07;;;;;;;;;;;;;;;3.52;61.36;102789.34;4979050;28;19921;-71
2023/04/18 00:17:34;;;;;;;;;;;;;;;3.49;61.50;102792.97;4996528;28;19960;-72
2023/04/18 00:20:01;;;;;;;;;;;;;;;3.48;62.26;102795.66;4996811;28;20012;-70
2023/04/18 00:22:27;;;;;;;;;;;;;;;3.45;61.81;102807.16;4997086;28;19949;-70
2023/04/18 00:24:52;;;;;;;;;;;;;;;3.43;61.74;102809.88;4996925;28;19975;-70
2023/04/18 00:27:18;;;;;;;;;;;;;;;3.42;62.16;102800.25;5011969;28;19913;-70
2023/04/18 00:29:43;;;;;;;;;;;;;;;3.41;63.37;102806.44;4997087;28;20321;-70
2023/04/18 00:32:09;;;;;;;;;;;;;;;3.39;62.91;102799.53;4997021;28;20262;-70
2023/04/18 00:34:34;;;;;;;;;;;;;;;3.37;63.53;102804.88;4996458;28;20012;-71
2023/04/18 00:37:00;;;;;;;;;;;;;;;3.36;62.94;102808.44;4995972;28;19953;-72
2023/04/18 00:39:25;;;;;;;;;;;;;;;3.37;62.60;102810.13;4996572;28;19921;-72
2023/04/18 00:41:50;;;;;;;;;;;;;;;3.37;61.28;102815.41;4996106;28;20348;-72
2023/04/18 00:44:16;;;;;;;;;;;;;;;3.38;61.63;102806.56;4995626;28;19967;-71
2023/04/18 00:46:42;;;;;;;;;;;;;;;3.38;63.22;102819.75;4995846;28;19960;-71
2023/04/18 00:49:07;;;;;;;;;;;;;;;3.39;64.00;102816.19;4995755;28;19917;-71
2023/04/18 00:51:33;;;;;;;;;;;;;;;3.42;62.40;102817.84;4996050;28;20393;-71
2023/04/18 00:53:59;;;;;;;;;;;;;;;3.43;61.56;102814.28;4995633;28;19913;-72
2023/04/18 00:56:25;;;;;;;;;;;;;;;3.43;62.00;102816.91;4995413;28;19914;-70
2023/04/18 00:58:51;;;;;;;;;;;;;;;3.39;62.41;102813.56;4997478;28;19914;-71
2023/04/18 01:01:16;;;;;;;;;;;;;;;3.30;62.43;102803.44;4998023;28;20012;-71
2023/04/18 01:03:42;;;;;;;;;;;;;;;3.36;65.62;102808.44;5011068;28;19918;-72
2023/04/18 01:06:11;;;;;;;;;;;;;;;3.38;63.71;102817.13;4999017;28;20289;-71
2023/04/18 01:08:36;;;;;;;;;;;;;;;3.39;64.13;102813.56;4996152;28;19914;-72
2023/04/18 01:11:02;;;;;;;;;;;;;;;3.41;64.29;102811.72;4994284;28;20042;-71
2023/04/18 01:13:27;;;;;;;;;;;;;;;3.40;64.56;102810.00;4995622;28;19968;-71
2023/04/18 01:15:54;;;;;;;;;;;;;;;3.41;63.92;102816.97;4995707;28;19918;-72
2023/04/18 01:18:21;;;;;;;;;;;;;;;3.41;66.86;102810.84;4995577;28;20361;-71
2023/04/18 01:20:47;;;;;;;;;;;;;;;3.38;67.43;102811.84;4995340;28;19921;-72
2023/04/18 01:23:13;;;;;;;;;;;;;;;3.35;68.65;102811.97;4995252;28;19965;-72
2023/04/18 01:25:39;;;;;;;;;;;;;;;3.32;68.74;102809.47;4995027;28;19949;-72
2023/04/18 01:28:05;;;;;;;;;;;;;;;3.31;66.05;102814.81;4994652;28;19922;-71
2023/04/18 01:30:30;;;;;;;;;;;;;;;3.31;66.38;102807.78;4995179;28;20448;-71
2023/04/18 01:32:55;;;;;;;;;;;;;;;3.31;66.46;102810.41;4994977;28;19959;-71
2023/04/18 01:35:21;;;;;;;;;;;;;;;3.30;67.13;102807.84;4995025;28;20005;-71
2023/04/18 01:37:46;;;;;;;;;;;;;;;3.29;66.86;102806.97;4995087;28;19958;-72
2023/04/18 01:40:11;;;;;;;;;;;;;;;3.27;66.83;102808.84;4994762;28;19972;-72
2023/04/18 01:42:37;;;;;;;;;;;;;;;3.27;66.71;102811.47;4994751;28;19917;-71
2023/04/18 01:45:03;;;;;;;;;;;;;;;3.25;67.25;102805.41;4994685;28;20369;-70
2023/04/18 01:47:29;;;;;;;;;;;;;;;3.26;67.67;102808.91;4994786;28;19921;-71
2023/04/18 01:49:54;;;;;;;;;;;;;;;3.24;67.69;102803.69;4995207;28;20297;-72
2023/04/18 01:52:20;;;;;;;;;;;;;;;3.22;67.72;102805.53;4994726;28;20456;-71
2023/04/18 01:54:45;;;;;;;;;;;;;;;3.22;68.31;102799.41;4993708;28;19914;-71
2023/04/18 01:57:16;;;;;;;;;;;;;;;3.21;68.60;102808.25;4991250;28;20333;-71
2023/04/18 01:59:42;;;;;;;;;;;;;;;3.20;68.32;102804.75;4994650;28;19949;-71
2023/04/18 02:02:07;;;;;;;;;;;;;;;3.19;68.56;102808.31;4994668;28;20254;-71
2023/04/18 02:04:33;;;;;;;;;;;;;;;3.18;70.91;102806.59;4994609;28;20321;-72
2023/04/18 02:07:00;;;;;;;;;;;;;;;3.16;70.60;102808.41;4994680;28;20358;-71
2023/04/18 02:09:25;;;;;;;;;;;;;;;3.17;70.13;102807.50;4994265;28;19913;-72
2023/04/18 02:11:50;;;;;;;;;;;;;;;3.18;69.33;102797.81;4994192;28;19913;-72
2023/04/18 02:14:15;;;;;;;;;;;;;;;3.21;68.09;102795.06;4994323;28;19968;-71
2023/04/18 02:16:41;;;;;;;;;;;;;;;3.25;67.93;102800.13;4994695;28;19959;-71
2023/04/18 02:19:06;;;;;;;;;;;;;;;3.25;68.04;102797.50;4994097;28;19918;-71
2023/04/18 02:21:31;;;;;;;;;;;;;;;3.26;67.84;102796.59;4993772;28;20480;-71
2023/04/18 02:23:57;;;;;;;;;;;;;;;3.25;68.53;102794.88;4994099;28;19914;-71
2023/04/18 02:26:22;;;;;;;;;;;;;;;3.22;69.62;102795.00;4976661;28;20304;-73
2023/04/18 02:28:48;;;;;;;;;;;;;;;3.20;70.50;102802.13;4994031;28;19917;-70
2023/04/18 02:31:14;;;;;;;;;;;;;;;3.18;69.84;102796.06;4994054;28;19925;-71
2023/04/18 02:33:43;;;;;;;;;;;;;;;3.20;68.63;102796.84;5009009;28;20297;-71
2023/04/18 02:36:09;;;;;;;;;;;;;;;3.23;69.01;102807.25;4994020;28;19914;-72
2023/04/18 02:38:34;;;;;;;;;;;;;;;3.22;69.71;102802.91;4993628;28;19920;-71
2023/04/18 02:40:59;;;;;;;;;;;;;;;3.19;70.82;102800.41;4993830;28;20024;-72
2023/04/18 02:43:25;;;;;;;;;;;;;;;3.18;71.26;102803.97;4993876;28;20333;-73
2023/04/18 02:45:50;;;;;;;;;;;;;;;3.18;70.37;102798.69;4993886;28;19914;-71
2023/04/18 02:48:15;;;;;;;;;;;;;;;3.21;70.02;102803.84;4994188;28;19999;-72
2023/04/18 02:50:40;;;;;;;;;;;;;;;3.22;71.42;102804.69;4993782;28;19953;-73
2023/04/18 02:53:06;;;;;;;;;;;;;;;3.25;70.06;102804.56;4993484;28;19913;-72
2023/04/18 02:55:31;;;;;;;;;;;;;;;3.29;69.95;102806.13;4993366;28;19914;-72
2023/04/18 02:57:57;;;;;;;;;;;;;;;3.33;71.12;102805.06;4993596;28;20289;-72
2023/04/18 03:00:22;;;;;;;;;;;;;;;3.34;72.96;102810.28;4993896;28;20332;-72
2023/04/18 03:02:48;;;;;;;;;;;;;;;3.34;72.87;102812.91;4993403;28;19913;-73
2023/04/18 03:05:13;;;;;;;;;;;;;;;3.39;71.28;102804.81;4976273;28;19968;-72
2023/04/18 03:07:38;;;;;;;;;;;;;;;3.45;70.80;102809.78;5008594;28;19917;-72
2023/04/18 03:10:04;;;;;;;;;;;;;;;3.52;70.47;102799.88;4993238;28;20285;-71
2023/04/18 03:12:30;;;;;;;;;;;;;;;3.60;69.26;102805.66;4997187;28;20399;-71
2023/04/18 03:14:55;;;;;;;;;;;;;;;3.65;69.37;102807.16;5006688;28;19906;-73
2023/04/18 03:17:20;;;;;;;;;;;;;;;3.73;66.30;102802.38;5018016;28;19918;-71
2023/04/18 03:19:46;;;;;;;;;;;;;;;3.84;65.23;102809.84;5007528;28;19964;-72
2023/04/18 03:22:12;;;;;;;;;;;;;;;3.92;64.66;102810.34;4995106;28;19913;-71
2023/04/18 03:24:37;;;;;;;;;;;;;;;4.01;63.45;102803.78;4994193;28;19914;-71
2023/04/18 03:27:02;;;;;;;;;;;;;;;4.09;63.32;102809.56;4994965;28;19921;-70
2023/04/18 03:29:28;;;;;;;;;;;;;;;4.15;62.24;102811.06;4994009;28;19924;-72
2023/04/18 03:31:53;;;;;;;;;;;;;;;4.24;61.68;102805.34;4994078;28;19918;-71
2023/04/18 03:34:18;;;;;;;;;;;;;;;4.31;62.49;102812.03;4994854;28;19921;-72
2023/04/18 03:36:44;;;;;;;;;;;;;;;4.42;62.92;102811.56;4980868;28;19914;-71
2023/04/18 03:39:09;;;;;;;;;;;;;;;4.71;62.01;102804.88;4997567;28;19914;-72
2023/04/18 03:41:35;;;;;;;;;;;;;;;4.96;60.12;102808.88;4997402;28;19964;-72
2023/04/18 03:44:00;;;;;;;;;;;;;;;5.13;59.30;102810.66;4998021;28;19921;-72
2023/04/18 03:46:25;;;;;;;;;;;;;;;5.41;58.69;102814.53;5012759;28;19956;-72
2023/04/18 03:48:51;;;;;;;;;;;;;;;5.73;58.55;102813.69;5001945;28;19913;-74
2023/04/18 03:51:16;;;;;;;;;;;;;;;6.15;56.07;102817.66;5006898;28;19968;-70
2023/04/18 03:53:41;;;;;;;;;;;;;;;6.58;54.83;102817.91;5018535;28;19914;-72
2023/04/18 03:56:07;;;;;;;;;;;;;;;6.78;52.51;102815.84;5018380;28;19921;-72
2023/04/18 03:58:32;;;;;;;;;;;;;;;6.58;52.58;102812.63;5001585;28;20423;-71
2023/04/18 04:00:59;;;;;;;;;;;;;;;6.21;53.02;102810.25;5018515;28;19914;-71
2023/04/18 04:03:26;;;;;;;;;;;;;;;5.79;53.12;102821.34;5016688;28;19920;-72
2023/04/18 04:05:52;;;;;;;;;;;;;;;5.45;53.60;102821.38;5016648;28;19914;-72
2023/04/18 04:08:17;;;;;;;;;;;;;;;5.17;53.26;102832.47;5015891;28;19953;-70
2023/04/18 04:10:43;;;;;;;;;;;;;;;5.03;54.17;102827.91;5001845;28;19933;-71
2023/04/18 04:13:08;;;;;;;;;;;;;;;4.93;54.42;102829.31;5009266;28;20423;-70
2023/04/18 04:15:35;;;;;;;;;;;;;;;4.88;54.27;102832.13;4997184;28;19921;-69
2023/04/18 04:18:00;;;;;;;;;;;;;;;4.85;54.06;102826.16;4996578;28;19914;-69
2023/04/18 04:20:26;;;;;;;;;;;;;;;4.84;52.92;102830.59;4996758;28;19914;-70
2023/04/18 04:22:51;;;;;;;;;;;;;;;4.89;52.05;102833.00;4996855;28;19972;-71
2023/04/18 04:25:16;;;;;;;;;;;;;;;4.91;50.74;102825.84;4978699;28;19914;-68
2023/04/18 04:27:43;;;;;;;;;;;;;;;4.96;49.63;102831.78;4979190;28;19914;-68
2023/04/18 04:30:09;;;;;;;;;;;;;;;5.00;48.71;102830.69;4996146;28;19927;-73
2023/04/18 04:32:35;;;;;;;;;;;;;;;5.02;47.57;102831.47;4996809;28;19964;-69
2023/04/18 04:35:00;;;;;;;;;;;;;;;5.07;46.36;102837.38;4996112;28;19913;-70
2023/04/18 04:37:26;;;;;;;;;;;;;;;5.11;44.88;102833.66;4996634;28;19940;-72
2023/04/18 04:39:51;;;;;;;;;;;;;;;5.15;46.78;102840.47;4978544;28;20280;-72
2023/04/18 04:42:18;;;;;;;;;;;;;;;5.21;46.02;102840.19;4995953;28;19914;-68
2023/04/18 04:44:43;;;;;;;;;;;;;;;5.30;46.62;102833.59;5010433;28;19924;-69
2023/04/18 04:47:08;;;;;;;;;;;;;;;5.40;45.71;102824.25;4998633;28;19914;-69
2023/04/18 04:49:34;;;;;;;;;;;;;;;5.53;43.78;102827.13;4997721;28;19973;-68
2023/04/18 04:52:01;;;;;;;;;;;;;;;5.63;45.03;102824.84;4996772;28;19948;-67
2023/04/18 04:54:26;;;;;;;;;;;;;;;5.75;44.59;102830.34;4997531;28;19921;-69
2023/04/18 04:56:52;;;;;;;;;;;;;;;5.85;43.98;102826.28;4996844;28;19914;-69
2023/04/18 04:59:17;;;;;;;;;;;;;;;5.88;42.05;102831.41;4997271;28;19913;-68
2023/04/18 05:01:42;;;;;;;;;;;;;;;5.98;42.68;102830.94;4996041;28;19922;-69
2023/04/18 05:04:08;;;;;;;;;;;;;;;6.20;42.31;102820.91;4996306;28;19920;-69
2023/04/18 05:06:33;;;;;;;;;;;;;;;6.28;42.07;102821.34;4996488;28;19918;-68
2023/04/18 05:08:59;;;;;;;;;;;;;;;6.36;42.59;102826.19;4996034;28;20016;-69
2023/04/18 05:11:25;;;;;;;;;;;;;;;6.51;40.96;102826.22;4995506;28;19963;-69
2023/04/18 05:13:51;;;;;;;;;;;;;;;6.65;42.11;102816.63;4995456;28;19917;-68
2023/04/18 05:16:16;;;;;;;;;;;;;;;6.80;41.08;102829.84;4977988;28;19953;-69
2023/04/18 05:18:42;;;;;;;;;;;;;;;7.00;41.84;102827.88;4995711;28;19914;-70
2023/04/18 05:21:07;;;;;;;;;;;;;;;7.19;40.25;102822.31;4995239;28;19976;-71
2023/04/18 05:23:35;;;;;;;;;;;;;;;7.26;38.71;102818.41;4995849;28;19914;-70
2023/04/18 05:26:02;;;;;;;;;;;;;;;7.22;40.23;102828.28;4995060;28;19914;-69
2023/04/18 05:28:27;;;;;;;;;;;;;;;7.26;39.77;102826.34;4995433;28;20027;-73
2023/04/18 05:30:59;;;;;;;;;;;;;;;7.25;39.09;102822.84;4995222;28;20424;-72
2023/04/18 05:33:25;;;;;;;;;;;;;;;7.30;39.60;102819.91;4995056;28;20290;-70
2023/04/18 05:35:51;;;;;;;;;;;;;;;7.34;40.21;102816.13;4994758;28;19914;-69
2023/04/18 05:38:16;;;;;;;;;;;;;;;7.35;39.18;102824.00;4994872;28;19914;-70
2023/04/18 05:40:42;;;;;;;;;;;;;;;7.33;37.48;102820.56;4994747;28;20027;-70
2023/04/18 05:43:07;;;;;;;;;;;;;;;7.35;38.72;102820.50;4994843;28;19913;-71
2023/04/18 05:45:32;;;;;;;;;;;;;;;7.38;38.32;102825.59;4994721;28;19918;-69
2023/04/18 05:47:58;;;;;;;;;;;;;;;7.44;39.45;102827.88;4994622;28;19920;-69
2023/04/18 05:50:23;;;;;;;;;;;;;;;7.49;38.09;102825.81;4976949;28;19972;-71
2023/04/18 05:52:48;;;;;;;;;;;;;;;7.52;37.17;102823.00;4994867;28;19914;-70
2023/04/18 05:55:16;;;;;;;;;;;;;;;7.45;36.56;102824.28;4994534;28;19957;-73
2023/04/18 05:57:42;;;;;;;;;;;;;;;7.42;36.72;102827.97;4993839;28;19952;-73
2023/04/18 06:00:10;;;;;;;;;;;;;;;7.34;36.60;102821.44;4994502;28;19949;-73
2023/04/18 06:02:35;;;;;;;;;;;;;;;7.30;37.01;102820.75;4996467;28;19916;-72
2023/04/18 06:05:01;;;;;;;;;;;;;;;7.32;37.19;102820.69;4997806;28;19921;-74
2023/04/18 06:07:26;;;;;;;;;;;;;;;7.28;36.54;102821.81;4997466;28;19913;-72
2023/04/18 06:09:53;;;;;;;;;;;;;;;7.26;37.09;102818.41;4996985;28;20312;-71
2023/04/18 06:12:18;;;;;;;;;;;;;;;7.27;37.52;102828.06;4995458;28;19921;-70
2023/04/18 06:14:44;;;;;;;;;;;;;;;7.30;37.25;102826.06;4994357;28;19914;-73
2023/04/18 06:17:11;;;;;;;;;;;;;;;7.28;37.71;102827.09;4994374;28;20343;-75
2023/04/18 06:19:38;;;;;;;;;;;;;;;7.26;36.94;102824.53;4993662;28;19913;-73
2023/04/18 06:22:07;;;;;;;;;;;;;;;7.17;36.97;102824.22;4994497;28;19921;-73
2023/04/18 06:24:32;;;;;;;;;;;;;;;7.13;36.67;102829.69;4982171;28;19928;-72
2023/04/18 06:27:00;;;;;;;;;;;;;;;7.07;37.63;102823.91;5006300;28;19929;-76
2023/04/18 06:29:29;;;;;;;;;;;;;;;7.01;37.52;102830.44;4996244;28;19918;-72
2023/04/18 06:31:56;;;;;;;;;;;;;;;7.06;38.03;102824.84;4983121;28;20017;-71
2023/04/18 06:34:21;;;;;;;;;;;;;;;7.10;37.93;102826.38;4986414;28;20031;-72
2023/04/18 06:36:48;;;;;;;;;;;;;;;7.11;37.66;102826.28;4982387;28;19961;-71
2023/04/18 06:39:13;;;;;;;;;;;;;;;7.12;37.87;102833.28;4983161;28;20079;-70
2023/04/18 06:41:38;;;;;;;;;;;;;;;7.11;38.04;102831.59;4983119;28;20014;-74
2023/04/18 06:44:04;;;;;;;;;;;;;;;7.13;38.32;102829.69;4983205;28;19914;-70
2023/04/18 06:46:29;;;;;;;;;;;;;;;7.10;37.94;102829.88;4984374;28;20294;-70
2023/04/18 06:48:54;;;;;;;;;;;;;;;7.11;38.16;102830.72;4987059;28;19926;-69
2023/04/18 06:51:20;;;;;;;;;;;;;;;7.17;37.95;102833.00;4999374;28;19914;-68
2023/04/18 06:53:46;;;;;;;;;;;;;;;7.28;38.94;102829.75;4985120;28;20338;-67
2023/04/18 06:56:12;;;;;;;;;;;;;;;7.42;38.01;102830.63;4985373;28;19921;-68
2023/04/18 06:58:37;;;;;;;;;;;;;;;7.52;38.54;102830.94;4986874;28;20281;-70
2023/04/18 07:01:03;;;;;;;;;;;;;;;7.64;37.23;102835.50;4984930;28;19926;-68
2023/04/18 07:03:28;;;;;;;;;;;;;;;7.75;37.67;102835.69;4983270;28;20392;-69
2023/04/18 07:05:54;;;;;;;;;;;;;;;7.86;38.41;102828.88;4982578;28;19918;-66
2023/04/18 07:08:19;;;;;;;;;;;;;;;7.92;37.71;102828.50;4984112;28;19920;-70
2023/04/18 07:10:45;;;;;;;;;;;;;;;8.00;38.28;102836.84;4982760;28;19917;-68
2023/04/18 07:13:10;;;;;;;;;;;;;;;8.03;36.91;102831.34;4965331;28;20012;-67
2023/04/18 07:15:35;;;;;;;;;;;;;;;8.06;37.51;102831.13;4981417;28;19957;-69
2023/04/18 07:18:01;;;;;;;;;;;;;;;8.07;37.29;102827.53;4983789;28;19918;-69
2023/04/18 07:20:26;;;;;;;;;;;;;;;8.12;37.55;102829.94;4984488;28;19960;-70
2023/04/18 07:22:52;;;;;;;;;;;;;;;8.22;37.30;102834.53;4982102;28;19914;-68
2023/04/18 07:25:18;;;;;;;;;;;;;;;8.34;37.15;102831.13;4985040;28;20365;-70
2023/04/18 07:27:43;;;;;;;;;;;;;;;8.46;37.22;102833.97;4989405;28;19918;-68
2023/04/18 07:30:09;;;;;;;;;;;;;;;8.56;37.02;102835.94;4992580;28;19917;-68
2023/04/18 07:32:34;;;;;;;;;;;;;;;8.66;36.23;102830.88;4992647;28;20263;-70
2023/04/18 07:35:00;;;;;;;;;;;;;;;8.83;36.17;102835.94;4992742;28;19921;-69
2023/04/18 07:37:26;;;;;;;;;;;;;;;9.03;36.28;102833.78;4959614;28;20037;-69
2023/04/18 07:39:51;;;;;;;;;;;;;;;9.23;34.90;102835.94;4992727;28;20409;-71
2023/04/18 07:42:17;;;;;;;;;;;;;;;9.42;35.45;102830.22;4975425;28;19914;-69
2023/04/18 07:44:43;;;;;;;;;;;;;;;9.56;34.52;102832.81;4959145;28;20362;-70
2023/04/18 07:47:09;;;;;;;;;;;;;;;9.71;35.12;102837.06;4975332;28;19917;-69
2023/04/18 07:49:34;;;;;;;;;;;;;;;9.78;33.88;102834.81;4992848;28;20322;-69
2023/04/18 07:51:59;;;;;;;;;;;;;;;9.86;33.34;102836.00;4992726;28;19913;-69
2023/04/18 07:54:25;;;;;;;;;;;;;;;9.97;32.95;102839.72;4992863;28;19913;-69
2023/04/18 07:56:50;;;;;;;;;;;;;;;10.04;32.50;102839.16;4992098;28;19953;-71
2023/04/18 07:59:15;;;;;;;;;;;;;;;10.13;32.97;102838.53;4992665;28;19953;-67
2023/04/18 08:01:41;;;;;;;;;;;;;;;10.14;31.62;102824.25;4992533;28;19964;-70
2023/04/18 08:04:07;;;;;;;;;;;;;;;10.19;30.57;102842.56;4992023;28;19968;-69
2023/04/18 08:06:33;;;;;;;;;;;;;;;10.22;30.76;102842.38;4974998;28;19914;-69
2023/04/18 08:09:03;;;;;;;;;;;;;;;10.21;31.28;102838.88;4992703;28;20005;-68
2023/04/18 08:11:28;;;;;;;;;;;;;;;10.26;31.45;102835.88;4992552;28;19918;-70
2023/04/18 08:13:54;;;;;;;;;;;;;;;10.40;31.92;102834.84;4992507;28;19918;-70
2023/04/18 08:16:19;;;;;;;;;;;;;;;10.51;30.48;102834.94;4991937;28;19992;-71
2023/04/18 08:18:45;;;;;;;;;;;;;;;10.69;30.49;102836.25;4992521;28;19925;-69
2023/04/18 08:21:11;;;;;;;;;;;;;;;10.83;29.24;102828.09;4995014;28;19914;-68
2023/04/18 08:23:37;;;;;;;;;;;;;;;10.98;28.85;102828.75;4996125;28;19937;-69
2023/04/18 08:26:02;;;;;;;;;;;;;;;11.09;27.99;102838.63;4990556;28;20372;-69
2023/04/18 08:28:28;;;;;;;;;;;;;;;11.26;27.50;102840.88;4986546;28;19922;-69
2023/04/18 08:30:55;;;;;;;;;;;;;;;11.39;27.56;102828.31;4986211;28;20377;-70
2023/04/18 08:33:22;;;;;;;;;;;;;;;11.52;27.63;102836.19;4974030;28;19914;-68
2023/04/18 08:35:49;;;;;;;;;;;;;;;11.63;27.05;102830.06;4968732;28;20278;-69
2023/04/18 08:38:16;;;;;;;;;;;;;;;11.73;28.02;102833.69;4981146;28;20389;-69
2023/04/18 08:40:42;;;;;;;;;;;;;;;11.81;27.61;102831.31;4983078;28;19917;-72
2023/04/18 08:43:08;;;;;;;;;;;;;;;11.86;26.93;102822.97;4988723;28;19914;-70
2023/04/18 08:45:33;;;;;;;;;;;;;;;11.86;26.80;102823.81;4993796;28;19926;-69
2023/04/18 08:48:00;;;;;;;;;;;;;;;11.85;26.54;102826.56;4991302;28;20270;-67
2023/04/18 08:50:26;;;;;;;;;;;;;;;11.89;27.63;102831.56;4984301;28;19921;-71
2023/04/18 08:52:53;;;;;;;;;;;;;;;11.96;27.43;102823.91;4984411;28;19913;-69
2023/04/18 08:55:21;;;;;;;;;;;;;;;11.97;26.90;102826.47;4985213;28;20384;-69
2023/04/18 08:57:46;;;;;;;;;;;;;;;12.00;26.81;102842.25;4985441;28;19920;-68
2023/04/18 09:00:12;;;;;;;;;;;;;;;11.96;27.20;102837.28;4984895;28;19921;-69
2023/04/18 09:02:41;;;;;;;;;;;;;;;11.93;26.88;102830.34;4985457;28;20369;-70
2023/04/18 09:05:18;;;;;;;;;;;;;;;11.93;25.97;102837.53;4968774;28;19914;-69
2023/04/18 09:07:43;;;;;;;;;;;;;;;11.88;25.63;102848.56;4989111;28;20016;-69
2023/04/18 09:10:09;;;;;;;;;;;;;;;11.87;26.04;102835.34;4987020;28;19953;-70
2023/04/18 09:12:41;;;;;;;;;;;;;;;11.90;25.98;102851.97;4992067;28;19918;-68
2023/04/18 09:15:12;;;;;;;;;;;;;;;11.96;26.64;102848.81;4984263;28;19913;-68
2023/04/18 09:17:42;;;;;;;;;;;;;;;12.07;26.64;102845.28;4969665;28;19924;-70
2023/04/18 09:20:09;;;;;;;;;;;;;;;12.12;26.56;102844.91;4954701;28;19914;-69
2023/04/18 09:22:47;;;;;;;;;;;;;;;12.14;26.46;102858.97;4987650;28;19921;-69
2023/04/18 09:25:26;;;;;;;;;;;;;;;12.06;26.05;102847.09;4987064;28;20258;-70
2023/04/18 09:27:59;;;;;;;;;;;;;;;12.07;26.13;102856.81;4977145;28;2687764;-72
2023/04/18 09:30:33;;;;;;;;;;;;;;;12.03;25.78;102851.84;4990234;28;19918;-68
2023/04/18 09:32:59;;;;;;;;;;;;;;;12.00;26.28;102854.75;4998932;28;19914;-70
2023/04/18 09:35:25;;;;;;;;;;;;;;;12.02;26.69;102861.66;5004553;28;19929;-71
2023/04/18 09:37:50;;;;;;;;;;;;;;;12.00;26.43;102855.59;5011700;28;19920;-72
2023/04/18 09:40:19;;;;;;;;;;;;;;;11.99;26.87;102863.72;4985414;28;19962;-71
2023/04/18 09:42:46;;;;;;;;;;;;;;;12.00;26.53;102863.59;4992470;28;20016;-68
2023/04/18 09:45:12;;;;;;;;;;;;;;;12.05;26.88;102869.44;4984808;28;19914;-68
2023/04/18 09:47:38;;;;;;;;;;;;;;;11.94;26.83;102864.09;4990770;28;19918;-70
2023/04/18 09:50:07;;;;;;;;;;;;;;;11.91;27.45;102884.84;4994265;28;20433;-68
2023/04/18 09:52:34;;;;;;;;;;;;;;;11.85;27.56;102869.28;4980637;28;19918;-70
2023/04/18 09:55:01;;;;;;;;;;;;;;;11.83;28.03;102871.22;4992579;28;19914;-66
2023/04/18 09:57:27;;;;;;;;;;;;;;;11.85;28.40;102877.28;4988709;28;20029;-66
2023/04/18 10:00:13;;;;;;;;;;;;;;;11.74;29.12;102878.97;4990526;28;20537;-71
2023/04/18 10:02:50;;;;;;;;;;;;;;;11.67;28.32;102884.91;4985631;28;19917;-67
2023/04/18 10:05:16;;;;;;;;;;;;;;;11.58;28.36;102885.59;4988472;28;19914;-67
2023/04/18 10:07:43;;;;;;;;;;;;;;;11.63;28.60;102891.44;4972803;28;19960;-67
2023/04/18 10:10:08;;;;;;;;;;;;;;;11.56;28.43;102896.38;4983228;28;20369;-69
2023/04/18 10:12:35;;;;;;;;;;;;;;;11.49;28.76;102880.00;4983832;28;19922;-67
2023/04/18 10:15:01;;;;;;;;;;;;;;;11.33;28.29;102890.13;4984698;28;19975;-67
2023/04/18 10:17:27;;;;;;;;;;;;;;;11.24;29.69;102896.13;4983371;28;19937;-66
2023/04/18 10:20:07;;;;;;;;;;;;;;;11.22;29.89;102903.41;4983109;28;20389;-70
2023/04/18 10:22:32;;;;;;;;;;;;;;;11.27;29.55;102901.25;4985215;28;20265;-69
2023/04/18 10:24:57;;;;;;;;;;;;;;;11.22;29.40;102899.91;4982173;28;19949;-68
2023/04/18 10:27:41;;;;;;;;;;;;;;;11.26;29.13;102904.88;4982767;28;19941;-68
2023/04/18 10:30:07;;;;;;;;;;;;;;;11.40;29.26;102903.84;4980840;28;19918;-68
2023/04/18 10:32:32;;;;;;;;;;;;;;;11.36;29.02;102905.91;4984924;28;20337;-69
2023/04/18 10:34:58;;;;;;;;;;;;;;;11.36;29.42;102899.72;4999776;28;20360;-65
2023/04/18 10:37:25;;;;;;;;;;;;;;;11.39;29.59;102910.16;4981731;28;19918;-68
2023/04/18 10:39:57;;;;;;;;;;;;;;;11.46;29.09;102912.25;4997757;28;19921;-66
2023/04/18 10:42:43;;;;;;;;;;;;;;;11.61;29.35;102906.72;4985232;28;19968;-67
2023/04/18 10:45:18;;;;;;;;;;;;;;;11.78;27.80;102906.28;4987368;28;19914;-68
2023/04/18 10:47:44;;;;;;;;;;;;;;;11.69;27.41;102910.50;4997183;28;20278;-67
2023/04/18 10:50:10;;;;;;;;;;;;;;;11.69;27.80;102906.97;4961291;28;19929;-68
2023/04/18 10:52:36;;;;;;;;;;;;;;;11.66;26.89;102904.53;4979182;28;19926;-68
2023/04/18 10:55:17;;;;;;;;;;;;;;;11.76;26.09;102913.53;4978708;28;19921;-68
2023/04/18 10:57:47;;;;;;;;;;;;;;;11.73;25.51;102911.97;4981267;28;19926;-67
2023/04/18 11:00:14;;;;;;;;;;;;;;;11.77;25.70;102910.75;4986415;28;20246;-69
2023/04/18 11:02:46;;;;;;;;;;;;;;;11.95;25.89;102913.88;4981627;28;20344;-68
2023/04/18 11:05:17;;;;;;;;;;;;;;;12.07;24.56;102918.22;4984135;28;19968;-68
2023/04/18 11:07:47;;;;;;;;;;;;;;;12.07;23.58;102904.88;4983675;28;19914;-66
2023/04/18 11:10:15;;;;;;;;;;;;;;;11.95;24.30;102910.34;4964795;28;19918;-66
2023/04/18 11:12:44;;;;;;;;;;;;;;;11.92;24.86;102908.75;4982493;28;19928;-68
2023/04/18 11:15:11;;;;;;;;;;;;;;;12.06;23.97;102911.19;4983913;28;19914;-69
2023/04/18 11:17:38;;;;;;;;;;;;;;;12.17;24.28;102901.50;4980889;28;19937;-67
2023/04/18 11:20:13;;;;;;;;;;;;;;;12.16;23.88;102910.50;4983258;28;19973;-69
2023/04/18 11:22:46;;;;;;;;;;;;;;;12.23;24.18;102904.53;4983296;28;19914;-69
2023/04/18 11:25:11;;;;;;;;;;;;;;;12.22;23.73;102913.53;4981211;28;19914;-67
2023/04/18 11:27:39;;;;;;;;;;;;;;;12.21;24.12;102922.50;4985814;28;19913;-70
2023/04/18 11:30:06;;;;;;;;;;;;;;;12.22;23.87;102916.19;4984633;28;19964;-67
2023/04/18 11:32:32;;;;;;;;;;;;;;;12.24;23.73;102911.59;4983511;28;19964;-68
2023/04/18 11:34:58;;;;;;;;;;;;;;;12.20;23.31;102936.00;4982841;28;19961;-67
2023/04/18 11:37:23;;;;;;;;;;;;;;;12.19;23.55;102915.59;4988712;28;19956;-67
2023/04/18 11:39:50;;;;;;;;;;;;;;;12.10;23.49;102922.47;4980880;28;19918;-67
2023/04/18 11:42:16;;;;;;;;;;;;;;;11.99;22.90;102923.34;4983649;28;19913;-67
2023/04/18 11:44:44;;;;;;;;;;;;;;;11.87;23.26;102910.94;4983503;28;20769;-69
2023/04/18 11:47:35;;;;;;;;;;;;;;;11.86;23.05;102911.91;4984000;28;19995;-69
2023/04/18 11:50:01;;;;;;;;;;;;;;;11.94;23.06;102914.84;4980622;28;20246;-66
2023/04/18 11:52:28;;;;;;;;;;;;;;;11.93;22.44;102915.81;4983341;28;19914;-67
2023/04/18 11:54:54;;;;;;;;;;;;;;;11.87;22.65;102910.94;4969239;28;20365;-68
2023/04/18 11:57:26;;;;;;;;;;;;;;;11.92;23.03;102908.75;4987631;28;19929;-68
2023/04/18 11:59:57;;;;;;;;;;;;;;;11.93;23.51;102909.63;4986891;28;19921;-67
2023/04/18 12:02:24;;;;;;;;;;;;;;;11.93;22.91;102925.63;4984949;28;19918;-67
2023/04/18 12:04:54;;;;;;;;;;;;;;;11.77;23.45;102926.78;4984649;28;20334;-66
2023/04/18 12:07:38;;;;;;;;;;;;;;;11.48;23.62;102920.13;4987534;28;19914;-68
2023/04/18 12:10:08;;;;;;;;;;;;;;;11.35;24.23;102914.88;4985103;28;19918;-69
2023/04/18 12:12:34;;;;;;;;;;;;;;;11.29;24.36;102915.34;4986085;28;19921;-68
2023/04/18 12:15:07;;;;;;;;;;;;;;;11.23;23.98;102910.44;4987255;28;20254;-68
2023/04/18 12:17:33;;;;;;;;;;;;;;;11.14;24.41;102924.47;4989692;28;20016;-67
2023/04/18 12:20:14;;;;;;;;;;;;;;;11.10;24.18;102917.66;4987431;28;20365;-66
2023/04/18 12:22:50;;;;;;;;;;;;;;;11.10;23.25;102925.66;4967107;28;19914;-67
2023/04/18 12:25:22;;;;;;;;;;;;;;;11.14;23.35;102924.47;4984605;28;19914;-69
2023/04/18 12:27:48;;;;;;;;;;;;;;;11.24;23.31;102922.81;4953889;28;19918;-67
2023/04/18 12:30:14;;;;;;;;;;;;;;;11.23;23.36;102922.94;4987542;28;19921;-69
2023/04/18 12:32:40;;;;;;;;;;;;;;;11.25;23.64;102923.66;4983392;28;19926;-69
2023/04/18 12:35:06;;;;;;;;;;;;;;;11.28;23.38;102913.66;4968516;28;19913;-68
2023/04/18 12:37:31;;;;;;;;;;;;;;;11.37;23.80;102939.63;4987551;28;20018;-66
2023/04/18 12:39:57;;;;;;;;;;;;;;;11.34;23.15;102925.66;4996149;28;20004;-69